createdAt,value
2023-05-13T00:01:23.976Z,10.80
2023-05-13T00:03:50.826Z,10.81
2023-05-13T00:06:17.807Z,10.70
2023-05-13T00:08:44.706Z,10.44
2023-05-13T00:11:11.476Z,10.33
2023-05-13T00:13:38.189Z,10.29
2023-05-13T00:16:05.028Z,10.28
2023-05-13T00:18:31.803Z,10.53
2023-05-13T00:20:58.512Z,10.53
2023-05-13T00:23:25.256Z,10.61
2023-05-13T00:25:51.990Z,10.74
2023-05-13T00:28:18.691Z,10.82
2023-05-13T00:30:46.197Z,10.83
2023-05-13T00:33:13.002Z,10.81
2023-05-13T00:35:39.933Z,10.78
2023-05-13T00:38:08.123Z,10.76
2023-05-13T00:40:39.736Z,10.78
2023-05-13T00:43:07.001Z,10.73
2023-05-13T00:45:33.842Z,10.73
2023-05-13T00:48:01.003Z,10.72
2023-05-13T00:50:27.791Z,10.67
2023-05-13T00:52:57.376Z,10.68
2023-05-13T00:55:24.229Z,10.62
2023-05-13T00:57:51.037Z,10.68
2023-05-13T01:00:18.088Z,10.71
2023-05-13T01:02:48.362Z,10.75
2023-05-13T01:05:27.035Z,10.67
2023-05-13T01:08:11.870Z,10.63
2023-05-13T01:10:50.528Z,10.43
2023-05-13T01:13:27.346Z,10.48
2023-05-13T01:16:06.665Z,10.57
2023-05-13T01:18:38.040Z,10.50
2023-05-13T01:21:06.619Z,9.94
2023-05-13T01:23:33.358Z,10.13
2023-05-13T01:26:00.346Z,9.75
2023-05-13T01:28:27.436Z,9.63
2023-05-13T01:30:57.386Z,9.70
2023-05-13T01:33:26.492Z,9.70
2023-05-13T01:35:53.643Z,9.70
2023-05-13T01:38:22.044Z,10.08
2023-05-13T01:40:53.586Z,10.10
2023-05-13T01:43:20.630Z,10.05
2023-05-13T01:45:47.572Z,9.91
2023-05-13T01:48:15.221Z,9.98
2023-05-13T01:50:45.746Z,9.91
2023-05-13T01:53:12.634Z,9.89
2023-05-13T01:55:39.391Z,10.00
2023-05-13T01:58:06.238Z,9.97
2023-05-13T02:00:33.006Z,9.96
2023-05-13T02:02:59.867Z,10.11
2023-05-13T02:05:26.612Z,10.14
2023-05-13T02:07:54.942Z,10.02
2023-05-13T02:10:21.836Z,10.11
2023-05-13T02:12:48.765Z,10.31
2023-05-13T02:15:15.599Z,10.46
2023-05-13T02:17:42.653Z,10.55
2023-05-13T02:20:10.129Z,10.52
2023-05-13T02:22:36.816Z,10.58
2023-05-13T02:25:06.628Z,10.58
2023-05-13T02:27:33.385Z,10.65
2023-05-13T02:30:00.057Z,10.38
2023-05-13T02:32:26.924Z,10.04
2023-05-13T02:34:53.702Z,10.02
2023-05-13T02:37:20.964Z,10.01
2023-05-13T02:39:56.526Z,10.09
2023-05-13T02:42:23.985Z,10.07
2023-05-13T02:44:50.869Z,10.16
2023-05-13T02:47:18.271Z,9.82
2023-05-13T02:49:45.001Z,9.68
2023-05-13T02:52:11.839Z,9.76
2023-05-13T02:54:38.644Z,9.53
2023-05-13T02:57:05.875Z,9.60
2023-05-13T02:59:32.637Z,9.85
2023-05-13T03:01:59.458Z,9.72
2023-05-13T03:04:26.456Z,9.71
2023-05-13T03:06:53.329Z,9.89
2023-05-13T03:09:20.188Z,9.97
2023-05-13T03:11:47.196Z,10.03
2023-05-13T03:14:14.046Z,9.71
2023-05-13T03:16:41.062Z,9.57
2023-05-13T03:19:07.905Z,9.45
2023-05-13T03:21:34.914Z,9.33
2023-05-13T03:24:02.877Z,9.25
2023-05-13T03:26:29.962Z,9.18
2023-05-13T03:28:56.992Z,9.09
2023-05-13T03:31:24.013Z,9.03
2023-05-13T03:33:50.830Z,9.05
2023-05-13T03:36:17.555Z,9.04
2023-05-13T03:38:44.226Z,9.02
2023-05-13T03:41:10.938Z,8.90
2023-05-13T03:43:37.684Z,8.86
2023-05-13T03:46:08.743Z,8.89
2023-05-13T03:48:37.356Z,8.86
2023-05-13T03:51:04.896Z,8.97
2023-05-13T03:53:31.605Z,8.89
2023-05-13T03:55:58.254Z,8.78
2023-05-13T03:58:27.521Z,8.80
2023-05-13T04:00:54.161Z,8.86
2023-05-13T04:03:21.054Z,8.78
2023-05-13T04:05:49.081Z,8.78
2023-05-13T04:08:15.976Z,8.83
2023-05-13T04:10:43.943Z,8.85
2023-05-13T04:13:11.343Z,9.15
2023-05-13T04:15:38.202Z,9.22
2023-05-13T04:18:06.305Z,9.20
2023-05-13T04:20:34.773Z,9.31
2023-05-13T04:23:01.876Z,9.31
2023-05-13T04:25:29.372Z,9.32
2023-05-13T04:27:56.210Z,9.49
2023-05-13T04:30:28.971Z,9.61
2023-05-13T04:32:56.067Z,9.78
2023-05-13T04:35:23.123Z,9.74
2023-05-13T04:37:54.007Z,9.80
2023-05-13T04:40:21.805Z,9.94
2023-05-13T04:42:55.033Z,10.10
2023-05-13T04:45:31.910Z,10.15
2023-05-13T04:47:59.991Z,10.19
2023-05-13T04:50:26.848Z,10.23
2023-05-13T04:52:55.057Z,10.15
2023-05-13T04:55:22.941Z,10.28
2023-05-13T04:57:50.133Z,10.32
2023-05-13T05:00:17.705Z,10.31
2023-05-13T05:02:46.086Z,10.29
2023-05-13T05:05:12.884Z,10.30
2023-05-13T05:07:40.694Z,10.37
2023-05-13T05:10:08.962Z,10.50
2023-05-13T05:12:38.819Z,10.60
2023-05-13T05:15:06.523Z,10.61
2023-05-13T05:17:34.185Z,10.79
2023-05-13T05:20:02.885Z,10.90
2023-05-13T05:22:29.905Z,10.93
2023-05-13T05:24:56.936Z,11.05
2023-05-13T05:27:25.092Z,11.18
2023-05-13T05:29:51.854Z,11.26
2023-05-13T05:32:19.517Z,11.32
2023-05-13T05:34:46.367Z,11.35
2023-05-13T05:37:13.073Z,11.34
2023-05-13T05:39:41.330Z,11.44
2023-05-13T05:42:08.954Z,11.49
2023-05-13T05:44:36.461Z,11.63
2023-05-13T05:47:03.482Z,11.67
2023-05-13T05:49:30.234Z,11.73
2023-05-13T05:51:57.550Z,11.83
2023-05-13T05:54:25.203Z,12.02
2023-05-13T05:56:51.882Z,12.20
2023-05-13T05:59:18.734Z,12.22
2023-05-13T06:01:46.397Z,12.35
2023-05-13T06:04:13.193Z,12.46
2023-05-13T06:06:40.572Z,12.59
2023-05-13T06:09:07.453Z,12.90
2023-05-13T06:11:34.222Z,13.10
2023-05-13T06:14:00.997Z,13.18
2023-05-13T06:16:27.775Z,13.08
2023-05-13T06:18:54.579Z,12.94
2023-05-13T06:21:21.452Z,12.91
2023-05-13T06:23:49.240Z,12.86
2023-05-13T06:26:16.211Z,12.90
2023-05-13T06:28:42.893Z,12.85
2023-05-13T06:31:09.578Z,13.11
2023-05-13T06:33:37.501Z,13.23
2023-05-13T06:36:04.925Z,13.33
2023-05-13T06:38:31.775Z,13.50
2023-05-13T06:40:59.628Z,13.38
2023-05-13T06:43:35.048Z,13.66
2023-05-13T06:46:13.152Z,14.01
2023-05-13T06:48:39.895Z,14.22
2023-05-13T06:51:06.654Z,14.19
2023-05-13T06:53:33.324Z,14.02
2023-05-13T06:55:59.995Z,15.24
2023-05-13T06:58:26.706Z,14.36
2023-05-13T07:00:53.493Z,14.41
2023-05-13T07:03:20.463Z,15.12
2023-05-13T07:05:47.196Z,15.15
2023-05-13T07:08:18.040Z,15.53
2023-05-13T07:10:45.232Z,15.16
2023-05-13T07:13:12.603Z,14.89
2023-05-13T07:15:39.435Z,15.63
2023-05-13T07:18:06.266Z,17.17
2023-05-13T07:20:33.161Z,18.03
2023-05-13T07:22:59.952Z,18.52
2023-05-13T07:25:26.869Z,16.97
2023-05-13T07:27:53.645Z,15.98
2023-05-13T07:30:20.867Z,16.95
2023-05-13T07:32:47.834Z,17.07
2023-05-13T07:35:16.821Z,17.44
2023-05-13T07:37:45.020Z,19.33
2023-05-13T07:40:13.486Z,18.85
2023-05-13T07:42:41.008Z,17.33
2023-05-13T07:45:08.747Z,17.14
2023-05-13T07:47:35.437Z,16.95
2023-05-13T07:50:02.266Z,17.24
2023-05-13T07:52:29.111Z,16.85
2023-05-13T07:54:55.874Z,17.79
2023-05-13T07:57:22.657Z,18.41
2023-05-13T07:59:49.658Z,17.56
2023-05-13T08:02:16.393Z,17.46
2023-05-13T08:04:43.098Z,18.80
2023-05-13T08:07:10.627Z,20.30
2023-05-13T08:09:37.495Z,17.91
2023-05-13T08:12:04.696Z,18.20
2023-05-13T08:14:31.441Z,19.14
2023-05-13T08:16:58.290Z,20.44
2023-05-13T08:19:25.195Z,19.67
2023-05-13T08:21:51.944Z,20.88
2023-05-13T08:24:18.721Z,22.03
2023-05-13T08:26:45.508Z,19.64
2023-05-13T08:29:15.694Z,19.91
2023-05-13T08:31:42.776Z,21.60
2023-05-13T08:34:09.666Z,20.28
2023-05-13T08:36:36.479Z,19.55
2023-05-13T08:39:03.380Z,22.00
2023-05-13T08:41:31.944Z,20.10
2023-05-13T08:44:00.600Z,21.71
2023-05-13T08:46:29.200Z,22.29
2023-05-13T08:48:56.594Z,22.35
2023-05-13T08:51:23.761Z,22.22
2023-05-13T08:53:52.286Z,21.83
2023-05-13T08:56:19.039Z,21.24
2023-05-13T08:58:46.108Z,21.58
2023-05-13T09:01:13.316Z,19.75
2023-05-13T09:03:55.207Z,20.46
2023-05-13T09:06:22.346Z,20.10
2023-05-13T09:08:49.228Z,20.45
2023-05-13T09:11:16.537Z,21.06
2023-05-13T09:13:44.858Z,22.21
2023-05-13T09:16:14.333Z,20.13
2023-05-13T09:18:42.297Z,21.45
2023-05-13T09:21:26.184Z,22.69
2023-05-13T09:24:03.067Z,22.86
2023-05-13T09:26:30.023Z,22.03
2023-05-13T09:29:31.937Z,21.54
2023-05-13T09:32:01.064Z,22.33
2023-05-13T09:34:32.601Z,21.03
2023-05-13T09:37:09.062Z,21.26
2023-05-13T09:39:41.668Z,21.79
2023-05-13T09:42:16.770Z,21.62
2023-05-13T09:44:44.669Z,21.70
2023-05-13T09:47:13.511Z,22.57
2023-05-13T09:49:41.990Z,21.96
2023-05-13T09:52:12.582Z,24.03
2023-05-13T09:54:39.437Z,21.82
2023-05-13T09:57:06.597Z,23.06
2023-05-13T09:59:36.773Z,22.72
2023-05-13T10:02:07.888Z,23.36
2023-05-13T10:04:34.866Z,22.99
2023-05-13T10:07:04.174Z,23.22
2023-05-13T10:09:35.589Z,22.49
2023-05-13T10:12:03.966Z,22.52
2023-05-13T10:14:31.070Z,21.49
2023-05-13T10:16:59.321Z,21.25
2023-05-13T10:19:27.112Z,20.04
2023-05-13T10:21:54.566Z,20.47
2023-05-13T10:24:23.032Z,20.42
2023-05-13T10:26:52.807Z,22.36
2023-05-13T10:29:19.764Z,22.75
2023-05-13T10:31:48.420Z,22.98
2023-05-13T10:34:15.814Z,20.93
2023-05-13T10:37:08.940Z,20.53
2023-05-13T10:40:04.199Z,20.32
2023-05-13T10:42:41.252Z,22.63
2023-05-13T10:45:08.151Z,23.02
2023-05-13T10:47:36.412Z,24.59
2023-05-13T10:50:07.820Z,22.31
2023-05-13T10:52:48.045Z,24.45
2023-05-13T10:55:17.428Z,24.69
2023-05-13T10:58:04.073Z,25.33
2023-05-13T11:00:32.027Z,23.31
2023-05-13T11:03:12.577Z,24.69
2023-05-13T11:05:41.574Z,25.15
2023-05-13T11:08:08.321Z,24.50
2023-05-13T11:10:35.067Z,23.61
2023-05-13T11:13:09.381Z,24.07
2023-05-13T11:15:46.384Z,22.91
2023-05-13T11:18:13.562Z,23.97
2023-05-13T11:20:51.662Z,23.26
2023-05-13T11:23:20.884Z,23.11
2023-05-13T11:26:09.436Z,22.41
2023-05-13T11:28:56.625Z,21.43
2023-05-13T11:31:24.095Z,21.34
2023-05-13T11:34:13.995Z,22.58
2023-05-13T11:36:43.292Z,22.39
2023-05-13T11:39:12.763Z,21.51
2023-05-13T11:41:53.426Z,21.20
2023-05-13T11:44:21.802Z,22.40
2023-05-13T11:46:55.822Z,22.54
2023-05-13T11:49:41.424Z,21.64
2023-05-13T11:52:13.032Z,23.10
2023-05-13T11:54:48.965Z,24.01
2023-05-13T11:57:26.142Z,21.93
2023-05-13T12:00:05.046Z,22.52
2023-05-13T12:02:37.978Z,22.03
2023-05-13T12:05:07.259Z,21.22
2023-05-13T12:07:35.215Z,21.35
2023-05-13T12:10:03.380Z,21.73
2023-05-13T12:12:31.538Z,20.70
2023-05-13T12:15:10.878Z,20.97
2023-05-13T12:17:41.200Z,21.95
2023-05-13T12:20:10.928Z,21.59
2023-05-13T12:22:46.950Z,22.11
2023-05-13T12:25:35.859Z,21.78
2023-05-13T12:28:21.112Z,22.98
2023-05-13T12:30:52.507Z,21.95
2023-05-13T12:33:27.185Z,21.59
2023-05-13T12:36:14.538Z,21.40
2023-05-13T12:38:59.890Z,21.48
2023-05-13T12:41:52.197Z,21.19
2023-05-13T12:44:18.936Z,21.49
2023-05-13T12:46:58.036Z,21.75
2023-05-13T12:49:25.544Z,21.87
2023-05-13T12:51:52.234Z,22.35
2023-05-13T12:54:19.210Z,22.44
2023-05-13T12:56:45.977Z,22.78
2023-05-13T12:59:14.597Z,23.94
2023-05-13T13:01:43.008Z,24.22
2023-05-13T13:04:10.013Z,24.14
2023-05-13T13:06:37.235Z,24.51
2023-05-13T13:09:03.945Z,24.06
2023-05-13T13:11:30.735Z,23.18
2023-05-13T13:13:57.503Z,23.45
2023-05-13T13:16:24.284Z,23.05
2023-05-13T13:18:53.425Z,23.25
2023-05-13T13:21:22.327Z,24.30
2023-05-13T13:23:49.299Z,22.16
2023-05-13T13:26:16.068Z,20.71
2023-05-13T13:28:42.770Z,19.97
2023-05-13T13:31:09.468Z,18.50
2023-05-13T13:33:36.288Z,17.59
2023-05-13T13:36:03.188Z,17.42
2023-05-13T13:38:30.020Z,17.96
2023-05-13T13:40:56.800Z,18.48
2023-05-13T13:43:23.642Z,18.31
2023-05-13T13:45:50.480Z,18.07
2023-05-13T13:48:17.214Z,17.93
2023-05-13T13:50:45.960Z,17.12
2023-05-13T13:53:13.995Z,16.53
2023-05-13T13:55:40.928Z,16.55
2023-05-13T13:58:07.652Z,16.41
2023-05-13T14:00:34.369Z,16.27
2023-05-13T14:03:03.051Z,16.52
2023-05-13T14:05:29.903Z,17.28
2023-05-13T14:07:56.763Z,16.98
2023-05-13T14:10:23.679Z,18.28
2023-05-13T14:12:50.643Z,19.14
2023-05-13T14:15:17.499Z,19.16
2023-05-13T14:17:44.184Z,19.26
2023-05-13T14:20:12.275Z,19.38
2023-05-13T14:22:39.049Z,19.42
2023-05-13T14:25:06.170Z,19.48
2023-05-13T14:27:34.237Z,19.25
2023-05-13T14:30:00.939Z,19.27
2023-05-13T14:32:27.637Z,20.07
2023-05-13T14:34:54.371Z,20.34
2023-05-13T14:37:21.062Z,20.46
2023-05-13T14:39:49.927Z,20.13
2023-05-13T14:42:18.104Z,20.17
2023-05-13T14:44:44.989Z,19.71
2023-05-13T14:47:11.776Z,19.60
2023-05-13T14:49:38.533Z,19.48
2023-05-13T14:52:05.656Z,19.35
2023-05-13T14:54:35.972Z,19.12
2023-05-13T14:57:03.812Z,17.39
2023-05-13T14:59:30.598Z,15.95
2023-05-13T15:01:57.466Z,15.65
2023-05-13T15:04:24.155Z,15.91
2023-05-13T15:06:51.517Z,15.67
2023-05-13T15:09:19.828Z,15.72
2023-05-13T15:11:46.526Z,15.50
2023-05-13T15:14:13.298Z,16.08
2023-05-13T15:16:40.125Z,16.07
2023-05-13T15:19:07.898Z,15.83
2023-05-13T15:21:34.670Z,15.46
2023-05-13T15:24:01.398Z,15.54
2023-05-13T15:26:28.308Z,15.68
2023-05-13T15:28:54.964Z,15.40
2023-05-13T15:31:21.902Z,15.42
2023-05-13T15:33:48.611Z,15.29
2023-05-13T15:36:15.252Z,15.17
2023-05-13T15:38:42.081Z,15.49
2023-05-13T15:41:08.718Z,15.73
2023-05-13T15:43:35.478Z,15.88
2023-05-13T15:46:02.369Z,16.05
2023-05-13T15:48:29.303Z,16.20
2023-05-13T15:50:56.037Z,16.46
2023-05-13T15:53:22.913Z,16.43
2023-05-13T15:55:49.631Z,16.73
2023-05-13T15:58:16.352Z,16.64
2023-05-13T16:00:43.254Z,16.92
2023-05-13T16:03:10.192Z,17.01
2023-05-13T16:05:38.679Z,16.83
2023-05-13T16:08:05.576Z,17.19
2023-05-13T16:10:32.317Z,17.37
2023-05-13T16:12:59.105Z,17.70
2023-05-13T16:15:25.926Z,17.28
2023-05-13T16:17:52.708Z,16.78
2023-05-13T16:20:19.578Z,17.04
2023-05-13T16:22:46.558Z,17.63
2023-05-13T16:25:13.384Z,17.44
2023-05-13T16:27:43.240Z,17.74
2023-05-13T16:30:13.516Z,17.95
2023-05-13T16:32:40.367Z,17.74
2023-05-13T16:35:07.823Z,16.68
2023-05-13T16:37:35.672Z,17.00
2023-05-13T16:40:02.442Z,17.03
2023-05-13T16:42:29.089Z,17.11
2023-05-13T16:44:56.101Z,16.85
2023-05-13T16:47:22.816Z,16.29
2023-05-13T16:49:50.358Z,16.81
2023-05-13T16:52:17.195Z,16.79
2023-05-13T16:54:44.852Z,16.83
2023-05-13T16:57:11.607Z,17.26
2023-05-13T16:59:38.297Z,17.39
2023-05-13T17:02:05.341Z,17.69
2023-05-13T17:04:32.055Z,17.47
2023-05-13T17:06:59.396Z,17.42
2023-05-13T17:09:26.771Z,17.48
2023-05-13T17:11:54.802Z,17.85
2023-05-13T17:14:21.925Z,17.54
2023-05-13T17:16:49.119Z,17.38
2023-05-13T17:19:15.893Z,16.92
2023-05-13T17:21:42.715Z,17.34
2023-05-13T17:24:09.373Z,17.70
2023-05-13T17:26:38.289Z,17.21
2023-05-13T17:29:05.381Z,16.46
2023-05-13T17:31:32.337Z,16.09
2023-05-13T17:33:59.168Z,15.63
2023-05-13T17:36:25.908Z,15.17
2023-05-13T17:38:52.711Z,14.94
2023-05-13T17:41:19.428Z,14.93
2023-05-13T17:43:46.348Z,14.73
2023-05-13T17:46:13.088Z,14.63
2023-05-13T17:48:39.917Z,14.78
2023-05-13T17:51:06.888Z,14.59
2023-05-13T17:53:35.018Z,14.58
2023-05-13T17:56:02.034Z,14.41
2023-05-13T17:58:28.717Z,14.29
2023-05-13T18:00:55.689Z,14.23
2023-05-13T18:03:22.444Z,14.21
2023-05-13T18:05:49.325Z,14.20
2023-05-13T18:08:16.239Z,14.08
2023-05-13T18:10:43.237Z,14.12
2023-05-13T18:13:10.065Z,14.09
2023-05-13T18:15:36.916Z,14.03
2023-05-13T18:18:04.046Z,14.00
2023-05-13T18:20:31.946Z,13.93
2023-05-13T18:22:59.172Z,13.74
2023-05-13T18:25:26.203Z,13.47
2023-05-13T18:27:52.984Z,13.77
2023-05-13T18:30:19.924Z,13.72
2023-05-13T18:32:46.740Z,13.96
2023-05-13T18:35:15.860Z,13.88
2023-05-13T18:37:42.752Z,13.84
2023-05-13T18:40:10.018Z,14.03
2023-05-13T18:42:36.943Z,13.88
2023-05-13T18:45:04.032Z,13.75
2023-05-13T18:47:30.803Z,13.88
2023-05-13T18:49:57.609Z,13.03
2023-05-13T18:52:24.402Z,13.56
2023-05-13T18:54:51.295Z,13.10
2023-05-13T18:57:18.038Z,12.80
2023-05-13T18:59:44.662Z,12.76
2023-05-13T19:02:11.722Z,12.36
2023-05-13T19:04:38.520Z,12.11
2023-05-13T19:07:05.616Z,12.59
2023-05-13T19:09:34.210Z,12.67
2023-05-13T19:12:00.999Z,12.48
2023-05-13T19:14:28.097Z,12.40
2023-05-13T19:16:55.601Z,12.67
2023-05-13T19:19:24.298Z,12.68
2023-05-13T19:21:51.194Z,12.43
2023-05-13T19:24:17.992Z,12.36
2023-05-13T19:26:44.846Z,12.30
2023-05-13T19:29:11.976Z,12.37
2023-05-13T19:31:38.684Z,12.41
2023-05-13T19:34:05.520Z,12.41
2023-05-13T19:36:32.856Z,12.49
2023-05-13T19:38:59.613Z,12.57
2023-05-13T19:41:26.360Z,12.75
2023-05-13T19:43:53.086Z,12.87
2023-05-13T19:46:19.857Z,12.93
2023-05-13T19:48:46.597Z,12.72
2023-05-13T19:51:13.278Z,12.41
2023-05-13T19:53:40.003Z,12.36
2023-05-13T19:56:07.166Z,12.38
2023-05-13T19:58:33.875Z,12.37
2023-05-13T20:01:01.211Z,12.48
2023-05-13T20:03:28.025Z,12.64
2023-05-13T20:05:54.817Z,12.67
2023-05-13T20:08:21.696Z,12.45
2023-05-13T20:10:48.409Z,12.33
2023-05-13T20:13:15.145Z,12.44
2023-05-13T20:15:42.507Z,12.29
2023-05-13T20:18:09.383Z,12.14
2023-05-13T20:20:36.203Z,12.14
2023-05-13T20:23:02.851Z,12.18
2023-05-13T20:25:29.561Z,12.30
2023-05-13T20:27:56.291Z,12.34
2023-05-13T20:30:23.171Z,12.34
2023-05-13T20:32:50.126Z,12.25
2023-05-13T20:35:16.854Z,12.29
2023-05-13T20:37:43.581Z,12.18
2023-05-13T20:40:10.680Z,12.14
2023-05-13T20:42:37.336Z,11.99
2023-05-13T20:45:04.678Z,12.05
2023-05-13T20:47:31.686Z,11.86
2023-05-13T20:49:58.438Z,12.12
2023-05-13T20:52:26.619Z,12.07
2023-05-13T20:54:53.719Z,12.05
2023-05-13T20:57:20.370Z,12.09
2023-05-13T20:59:47.125Z,11.65
2023-05-13T21:02:13.746Z,11.43
2023-05-13T21:04:40.691Z,11.35
2023-05-13T21:07:07.873Z,11.51
2023-05-13T21:09:34.575Z,11.76
2023-05-13T21:12:01.438Z,11.86
2023-05-13T21:14:28.078Z,11.93
2023-05-13T21:16:54.790Z,12.01
2023-05-13T21:19:23.465Z,12.03
2023-05-13T21:21:50.332Z,12.00
2023-05-13T21:24:18.873Z,11.78
2023-05-13T21:26:46.689Z,11.95
2023-05-13T21:29:13.432Z,11.91
2023-05-13T21:31:40.186Z,11.90
2023-05-13T21:34:06.927Z,11.75
2023-05-13T21:36:34.011Z,11.65
2023-05-13T21:39:00.828Z,11.57
2023-05-13T21:41:27.530Z,11.55
2023-05-13T21:43:54.335Z,11.42
2023-05-13T21:46:21.032Z,11.39
2023-05-13T21:48:48.375Z,11.34
2023-05-13T21:51:15.152Z,11.34
2023-05-13T21:53:43.366Z,11.46
2023-05-13T21:56:10.146Z,11.47
2023-05-13T21:58:36.829Z,11.55
2023-05-13T22:01:03.532Z,11.46
2023-05-13T22:03:30.295Z,11.51
2023-05-13T22:05:57.067Z,11.51
2023-05-13T22:08:23.889Z,11.65
2023-05-13T22:10:50.660Z,11.57
2023-05-13T22:13:17.415Z,11.58
2023-05-13T22:15:44.246Z,11.50
2023-05-13T22:18:11.007Z,11.39
2023-05-13T22:20:37.886Z,11.47
2023-05-13T22:23:04.570Z,11.16
2023-05-13T22:25:31.458Z,10.90
2023-05-13T22:27:58.166Z,10.74
2023-05-13T22:30:25.037Z,10.58
2023-05-13T22:32:52.021Z,10.65
2023-05-13T22:35:18.694Z,11.04
2023-05-13T22:37:45.439Z,10.90
2023-05-13T22:40:12.543Z,10.54
2023-05-13T22:42:39.320Z,10.80
2023-05-13T22:45:06.850Z,10.96
2023-05-13T22:47:35.521Z,11.05
2023-05-13T22:50:03.491Z,11.01
2023-05-13T22:52:30.589Z,10.98
2023-05-13T22:54:57.203Z,11.04
2023-05-13T22:57:23.898Z,11.09
2023-05-13T22:59:50.721Z,10.80
2023-05-13T23:02:17.483Z,10.60
2023-05-13T23:04:44.150Z,10.76
2023-05-13T23:07:10.831Z,10.88
2023-05-13T23:09:37.538Z,10.98
2023-05-13T23:12:04.471Z,10.98
2023-05-13T23:14:31.152Z,10.78
2023-05-13T23:16:57.909Z,10.79
2023-05-13T23:19:27.623Z,10.92
2023-05-13T23:21:54.294Z,11.05
2023-05-13T23:24:21.293Z,10.85
2023-05-13T23:26:49.054Z,10.86
2023-05-13T23:29:16.063Z,10.97
2023-05-13T23:31:42.803Z,11.05
2023-05-13T23:34:09.705Z,10.60
2023-05-13T23:36:36.367Z,10.26
2023-05-13T23:39:03.097Z,10.19
2023-05-13T23:41:29.945Z,10.43
2023-05-13T23:43:56.649Z,10.53
2023-05-13T23:46:23.493Z,10.57
2023-05-13T23:48:50.712Z,10.53
2023-05-13T23:51:17.398Z,10.57
2023-05-13T23:53:44.162Z,10.62
2023-05-13T23:56:10.957Z,10.68
2023-05-13T23:58:37.707Z,10.58
